sensor_id;sensor_type;location;lat;lon;timestamp;P1;durP1;ratioP1;P2;durP2;ratioP2
30948;SDS011;17637;51.984;21.208;2023-09-19T00:01:52;16.35;;;13.50;;
30948;SDS011;17637;51.984;21.208;2023-09-19T00:04:24;13.88;;;12.38;;
30948;SDS011;17637;51.984;21.208;2023-09-19T00:07:00;15.15;;;13.40;;
30948;SDS011;17637;51.984;21.208;2023-09-19T00:09:34;18.63;;;14.10;;
30948;SDS011;17637;51.984;21.208;2023-09-19T00:12:08;18.58;;;15.05;;
30948;SDS011;17637;51.984;21.208;2023-09-19T00:14:40;15.43;;;13.82;;
30948;SDS011;17637;51.984;21.208;2023-09-19T00:17:12;17.25;;;14.02;;
30948;SDS011;17637;51.984;21.208;2023-09-19T00:19:44;15.85;;;13.20;;
30948;SDS011;17637;51.984;21.208;2023-09-19T00:22:17;14.57;;;13.07;;
30948;SDS011;17637;51.984;21.208;2023-09-19T00:24:50;16.15;;;14.07;;
30948;SDS011;17637;51.984;21.208;2023-09-19T00:27:24;15.90;;;13.82;;
30948;SDS011;17637;51.984;21.208;2023-09-19T00:29:56;16.40;;;13.02;;
30948;SDS011;17637;51.984;21.208;2023-09-19T00:32:28;14.25;;;12.75;;
30948;SDS011;17637;51.984;21.208;2023-09-19T00:35:03;13.40;;;11.82;;
30948;SDS011;17637;51.984;21.208;2023-09-19T00:37:36;13.75;;;12.30;;
30948;SDS011;17637;51.984;21.208;2023-09-19T00:40:11;14.05;;;12.65;;
30948;SDS011;17637;51.984;21.208;2023-09-19T00:42:44;14.40;;;12.18;;
30948;SDS011;17637;51.984;21.208;2023-09-19T00:45:17;16.77;;;12.85;;
30948;SDS011;17637;51.984;21.208;2023-09-19T00:47:50;17.50;;;14.38;;
30948;SDS011;17637;51.984;21.208;2023-09-19T00:50:24;14.38;;;12.77;;
30948;SDS011;17637;51.984;21.208;2023-09-19T00:52:58;16.38;;;13.60;;
30948;SDS011;17637;51.984;21.208;2023-09-19T00:55:30;14.15;;;12.75;;
30948;SDS011;17637;51.984;21.208;2023-09-19T00:58:04;14.80;;;12.75;;
30948;SDS011;17637;51.984;21.208;2023-09-19T01:00:39;18.33;;;15.20;;
30948;SDS011;17637;51.984;21.208;2023-09-19T01:03:12;14.30;;;12.45;;
30948;SDS011;17637;51.984;21.208;2023-09-19T01:05:45;18.08;;;13.80;;
30948;SDS011;17637;51.984;21.208;2023-09-19T01:08:17;16.40;;;14.60;;
30948;SDS011;17637;51.984;21.208;2023-09-19T01:10:55;16.00;;;13.32;;
30948;SDS011;17637;51.984;21.208;2023-09-19T01:13:48;17.90;;;14.32;;
30948;SDS011;17637;51.984;21.208;2023-09-19T01:16:33;14.18;;;12.70;;
30948;SDS011;17637;51.984;21.208;2023-09-19T01:31:00;14.85;;;12.57;;
30948;SDS011;17637;51.984;21.208;2023-09-19T01:33:53;14.75;;;12.90;;
30948;SDS011;17637;51.984;21.208;2023-09-19T01:36:36;13.90;;;12.45;;
30948;SDS011;17637;51.984;21.208;2023-09-19T01:39:10;18.67;;;14.13;;
30948;SDS011;17637;51.984;21.208;2023-09-19T01:41:56;14.18;;;12.73;;
30948;SDS011;17637;51.984;21.208;2023-09-19T01:44:40;15.43;;;13.40;;
30948;SDS011;17637;51.984;21.208;2023-09-19T01:47:23;16.63;;;12.52;;
30948;SDS011;17637;51.984;21.208;2023-09-19T01:50:24;14.98;;;13.20;;
30948;SDS011;17637;51.984;21.208;2023-09-19T01:53:07;17.55;;;15.73;;
30948;SDS011;17637;51.984;21.208;2023-09-19T01:55:46;16.58;;;14.77;;
30948;SDS011;17637;51.984;21.208;2023-09-19T02:01:01;19.60;;;15.43;;
30948;SDS011;17637;51.984;21.208;2023-09-19T02:03:37;20.75;;;14.52;;
30948;SDS011;17637;51.984;21.208;2023-09-19T02:06:14;15.90;;;13.90;;
30948;SDS011;17637;51.984;21.208;2023-09-19T02:08:47;19.10;;;15.15;;
30948;SDS011;17637;51.984;21.208;2023-09-19T02:11:19;20.75;;;14.77;;
30948;SDS011;17637;51.984;21.208;2023-09-19T02:13:50;18.23;;;13.63;;
30948;SDS011;17637;51.984;21.208;2023-09-19T02:16:26;15.77;;;12.73;;
30948;SDS011;17637;51.984;21.208;2023-09-19T02:18:58;16.27;;;14.32;;
30948;SDS011;17637;51.984;21.208;2023-09-19T02:21:31;16.60;;;13.77;;
30948;SDS011;17637;51.984;21.208;2023-09-19T02:24:03;15.32;;;12.43;;
30948;SDS011;17637;51.984;21.208;2023-09-19T02:26:35;17.67;;;14.63;;
30948;SDS011;17637;51.984;21.208;2023-09-19T02:29:08;16.67;;;14.88;;
30948;SDS011;17637;51.984;21.208;2023-09-19T02:31:44;17.23;;;14.57;;
30948;SDS011;17637;51.984;21.208;2023-09-19T02:34:18;15.82;;;14.20;;
30948;SDS011;17637;51.984;21.208;2023-09-19T02:36:50;14.73;;;12.98;;
30948;SDS011;17637;51.984;21.208;2023-09-19T02:39:22;14.75;;;12.75;;
30948;SDS011;17637;51.984;21.208;2023-09-19T02:41:54;17.80;;;14.68;;
30948;SDS011;17637;51.984;21.208;2023-09-19T02:44:26;16.92;;;14.27;;
30948;SDS011;17637;51.984;21.208;2023-09-19T02:46:59;14.90;;;13.10;;
30948;SDS011;17637;51.984;21.208;2023-09-19T02:49:30;18.85;;;13.93;;
30948;SDS011;17637;51.984;21.208;2023-09-19T02:52:02;17.15;;;13.55;;
30948;SDS011;17637;51.984;21.208;2023-09-19T02:54:35;13.88;;;12.45;;
30948;SDS011;17637;51.984;21.208;2023-09-19T02:57:08;15.38;;;13.63;;
30948;SDS011;17637;51.984;21.208;2023-09-19T02:59:40;15.70;;;12.52;;
30948;SDS011;17637;51.984;21.208;2023-09-19T03:02:13;15.02;;;13.43;;
30948;SDS011;17637;51.984;21.208;2023-09-19T03:04:45;14.95;;;13.43;;
30948;SDS011;17637;51.984;21.208;2023-09-19T03:07:18;15.25;;;13.55;;
30948;SDS011;17637;51.984;21.208;2023-09-19T03:09:50;15.68;;;13.63;;
30948;SDS011;17637;51.984;21.208;2023-09-19T03:12:24;17.90;;;14.40;;
30948;SDS011;17637;51.984;21.208;2023-09-19T03:14:56;18.60;;;14.35;;
30948;SDS011;17637;51.984;21.208;2023-09-19T03:17:28;16.20;;;13.10;;
30948;SDS011;17637;51.984;21.208;2023-09-19T03:20:00;14.40;;;12.82;;
30948;SDS011;17637;51.984;21.208;2023-09-19T03:22:32;14.73;;;13.18;;
30948;SDS011;17637;51.984;21.208;2023-09-19T03:25:04;15.82;;;13.30;;
30948;SDS011;17637;51.984;21.208;2023-09-19T03:27:39;15.50;;;13.88;;
30948;SDS011;17637;51.984;21.208;2023-09-19T03:30:12;16.30;;;14.05;;
30948;SDS011;17637;51.984;21.208;2023-09-19T03:32:45;17.20;;;14.32;;
30948;SDS011;17637;51.984;21.208;2023-09-19T03:35:19;17.58;;;13.93;;
30948;SDS011;17637;51.984;21.208;2023-09-19T03:37:50;18.05;;;14.15;;
30948;SDS011;17637;51.984;21.208;2023-09-19T03:40:24;16.20;;;13.43;;
30948;SDS011;17637;51.984;21.208;2023-09-19T03:42:58;13.65;;;12.07;;
30948;SDS011;17637;51.984;21.208;2023-09-19T03:45:33;16.45;;;12.93;;
30948;SDS011;17637;51.984;21.208;2023-09-19T03:48:08;15.75;;;12.63;;
30948;SDS011;17637;51.984;21.208;2023-09-19T03:50:41;15.90;;;13.15;;
30948;SDS011;17637;51.984;21.208;2023-09-19T03:53:12;20.60;;;13.80;;
30948;SDS011;17637;51.984;21.208;2023-09-19T03:55:45;16.35;;;14.07;;
30948;SDS011;17637;51.984;21.208;2023-09-19T03:58:17;15.95;;;13.23;;
30948;SDS011;17637;51.984;21.208;2023-09-19T04:00:50;14.23;;;11.65;;
30948;SDS011;17637;51.984;21.208;2023-09-19T04:03:22;14.98;;;13.38;;
30948;SDS011;17637;51.984;21.208;2023-09-19T04:05:54;16.70;;;13.77;;
30948;SDS011;17637;51.984;21.208;2023-09-19T04:08:26;14.63;;;13.13;;
30948;SDS011;17637;51.984;21.208;2023-09-19T04:10:57;14.63;;;13.07;;
30948;SDS011;17637;51.984;21.208;2023-09-19T04:13:29;14.80;;;12.90;;
30948;SDS011;17637;51.984;21.208;2023-09-19T04:16:02;14.68;;;12.70;;
30948;SDS011;17637;51.984;21.208;2023-09-19T04:18:35;14.80;;;12.77;;
30948;SDS011;17637;51.984;21.208;2023-09-19T04:21:09;14.70;;;13.18;;
30948;SDS011;17637;51.984;21.208;2023-09-19T04:23:41;18.08;;;13.35;;
30948;SDS011;17637;51.984;21.208;2023-09-19T04:26:14;16.00;;;12.60;;
30948;SDS011;17637;51.984;21.208;2023-09-19T04:28:48;16.25;;;12.90;;
30948;SDS011;17637;51.984;21.208;2023-09-19T04:31:20;17.05;;;14.00;;
30948;SDS011;17637;51.984;21.208;2023-09-19T04:33:53;15.40;;;13.10;;
30948;SDS011;17637;51.984;21.208;2023-09-19T04:36:25;14.82;;;12.25;;
30948;SDS011;17637;51.984;21.208;2023-09-19T04:39:06;15.35;;;11.73;;
30948;SDS011;17637;51.984;21.208;2023-09-19T04:41:38;14.43;;;11.70;;
30948;SDS011;17637;51.984;21.208;2023-09-19T04:44:12;15.75;;;13.25;;
30948;SDS011;17637;51.984;21.208;2023-09-19T04:46:44;15.07;;;12.63;;
30948;SDS011;17637;51.984;21.208;2023-09-19T04:49:20;12.93;;;11.55;;
30948;SDS011;17637;51.984;21.208;2023-09-19T04:51:52;16.83;;;12.82;;
30948;SDS011;17637;51.984;21.208;2023-09-19T04:54:24;16.70;;;13.13;;
30948;SDS011;17637;51.984;21.208;2023-09-19T04:56:56;14.05;;;12.05;;
30948;SDS011;17637;51.984;21.208;2023-09-19T04:59:28;16.42;;;12.23;;
30948;SDS011;17637;51.984;21.208;2023-09-19T05:02:00;15.23;;;12.93;;
30948;SDS011;17637;51.984;21.208;2023-09-19T05:04:32;15.25;;;13.02;;
30948;SDS011;17637;51.984;21.208;2023-09-19T05:07:03;15.27;;;13.13;;
30948;SDS011;17637;51.984;21.208;2023-09-19T05:09:35;16.50;;;13.73;;
30948;SDS011;17637;51.984;21.208;2023-09-19T05:12:08;15.88;;;12.48;;
30948;SDS011;17637;51.984;21.208;2023-09-19T05:14:42;17.05;;;12.63;;
30948;SDS011;17637;51.984;21.208;2023-09-19T05:17:14;15.60;;;12.57;;
30948;SDS011;17637;51.984;21.208;2023-09-19T05:19:48;14.82;;;13.30;;
30948;SDS011;17637;51.984;21.208;2023-09-19T05:22:20;16.52;;;12.18;;
30948;SDS011;17637;51.984;21.208;2023-09-19T05:24:52;16.30;;;12.32;;
30948;SDS011;17637;51.984;21.208;2023-09-19T05:27:24;15.07;;;13.38;;
30948;SDS011;17637;51.984;21.208;2023-09-19T05:29:56;14.20;;;12.70;;
30948;SDS011;17637;51.984;21.208;2023-09-19T05:32:28;14.73;;;12.10;;
30948;SDS011;17637;51.984;21.208;2023-09-19T05:34:59;16.63;;;12.38;;
30948;SDS011;17637;51.984;21.208;2023-09-19T05:37:31;13.50;;;12.18;;
30948;SDS011;17637;51.984;21.208;2023-09-19T05:40:03;13.70;;;11.85;;
30948;SDS011;17637;51.984;21.208;2023-09-19T05:42:41;15.98;;;12.65;;
30948;SDS011;17637;51.984;21.208;2023-09-19T05:45:15;15.85;;;13.00;;
30948;SDS011;17637;51.984;21.208;2023-09-19T05:47:51;13.68;;;11.52;;
30948;SDS011;17637;51.984;21.208;2023-09-19T05:50:27;15.30;;;12.13;;
30948;SDS011;17637;51.984;21.208;2023-09-19T05:52:59;13.00;;;10.90;;
30948;SDS011;17637;51.984;21.208;2023-09-19T05:55:31;14.00;;;11.43;;
30948;SDS011;17637;51.984;21.208;2023-09-19T05:58:04;16.25;;;12.10;;
30948;SDS011;17637;51.984;21.208;2023-09-19T06:00:35;13.68;;;11.52;;
30948;SDS011;17637;51.984;21.208;2023-09-19T06:03:10;12.95;;;10.55;;
30948;SDS011;17637;51.984;21.208;2023-09-19T06:05:45;13.80;;;11.43;;
30948;SDS011;17637;51.984;21.208;2023-09-19T06:08:18;14.73;;;12.40;;
30948;SDS011;17637;51.984;21.208;2023-09-19T06:10:50;13.93;;;10.35;;
30948;SDS011;17637;51.984;21.208;2023-09-19T06:13:23;14.10;;;11.05;;
30948;SDS011;17637;51.984;21.208;2023-09-19T06:15:58;14.65;;;11.35;;
30948;SDS011;17637;51.984;21.208;2023-09-19T06:18:30;14.40;;;11.38;;
30948;SDS011;17637;51.984;21.208;2023-09-19T06:21:05;14.57;;;11.13;;
30948;SDS011;17637;51.984;21.208;2023-09-19T06:23:39;15.82;;;11.75;;
30948;SDS011;17637;51.984;21.208;2023-09-19T06:26:11;17.05;;;11.40;;
30948;SDS011;17637;51.984;21.208;2023-09-19T06:28:44;13.40;;;11.85;;
30948;SDS011;17637;51.984;21.208;2023-09-19T06:31:16;15.05;;;12.10;;
30948;SDS011;17637;51.984;21.208;2023-09-19T06:33:48;15.05;;;11.70;;
30948;SDS011;17637;51.984;21.208;2023-09-19T06:36:20;12.93;;;10.98;;
30948;SDS011;17637;51.984;21.208;2023-09-19T06:38:52;12.40;;;10.95;;
30948;SDS011;17637;51.984;21.208;2023-09-19T06:41:24;14.50;;;11.07;;
30948;SDS011;17637;51.984;21.208;2023-09-19T06:43:56;14.65;;;10.73;;
30948;SDS011;17637;51.984;21.208;2023-09-19T06:46:29;14.70;;;11.40;;
30948;SDS011;17637;51.984;21.208;2023-09-19T06:49:04;11.95;;;10.75;;
30948;SDS011;17637;51.984;21.208;2023-09-19T06:51:37;12.63;;;10.88;;
30948;SDS011;17637;51.984;21.208;2023-09-19T06:54:09;13.10;;;10.75;;
30948;SDS011;17637;51.984;21.208;2023-09-19T06:56:42;14.07;;;11.43;;
30948;SDS011;17637;51.984;21.208;2023-09-19T06:59:13;14.27;;;11.38;;
30948;SDS011;17637;51.984;21.208;2023-09-19T07:01:45;12.48;;;10.82;;
30948;SDS011;17637;51.984;21.208;2023-09-19T07:04:18;11.55;;;10.32;;
30948;SDS011;17637;51.984;21.208;2023-09-19T07:06:53;15.20;;;11.45;;
30948;SDS011;17637;51.984;21.208;2023-09-19T07:09:25;12.95;;;10.88;;
30948;SDS011;17637;51.984;21.208;2023-09-19T07:11:58;14.13;;;10.88;;
30948;SDS011;17637;51.984;21.208;2023-09-19T07:14:30;15.50;;;11.60;;
30948;SDS011;17637;51.984;21.208;2023-09-19T07:17:03;13.05;;;10.68;;
30948;SDS011;17637;51.984;21.208;2023-09-19T07:19:35;12.15;;;10.50;;
30948;SDS011;17637;51.984;21.208;2023-09-19T07:22:07;12.15;;;10.93;;
30948;SDS011;17637;51.984;21.208;2023-09-19T07:24:39;15.32;;;11.55;;
30948;SDS011;17637;51.984;21.208;2023-09-19T07:27:11;12.40;;;11.05;;
30948;SDS011;17637;51.984;21.208;2023-09-19T07:29:42;11.65;;;10.35;;
30948;SDS011;17637;51.984;21.208;2023-09-19T07:32:14;14.05;;;11.48;;
30948;SDS011;17637;51.984;21.208;2023-09-19T07:34:48;12.10;;;10.63;;
30948;SDS011;17637;51.984;21.208;2023-09-19T07:37:20;12.68;;;11.00;;
30948;SDS011;17637;51.984;21.208;2023-09-19T07:39:52;16.27;;;12.02;;
30948;SDS011;17637;51.984;21.208;2023-09-19T07:42:25;15.73;;;11.02;;
30948;SDS011;17637;51.984;21.208;2023-09-19T07:44:57;13.27;;;11.85;;
30948;SDS011;17637;51.984;21.208;2023-09-19T07:47:29;14.18;;;10.35;;
30948;SDS011;17637;51.984;21.208;2023-09-19T07:50:02;13.68;;;11.30;;
30948;SDS011;17637;51.984;21.208;2023-09-19T07:52:34;13.77;;;11.50;;
30948;SDS011;17637;51.984;21.208;2023-09-19T07:55:06;17.83;;;11.38;;
30948;SDS011;17637;51.984;21.208;2023-09-19T07:57:43;14.18;;;11.35;;
30948;SDS011;17637;51.984;21.208;2023-09-19T08:00:15;11.60;;;10.30;;
30948;SDS011;17637;51.984;21.208;2023-09-19T08:02:47;15.00;;;11.48;;
30948;SDS011;17637;51.984;21.208;2023-09-19T08:05:28;12.25;;;10.70;;
30948;SDS011;17637;51.984;21.208;2023-09-19T08:08:00;13.95;;;12.05;;
30948;SDS011;17637;51.984;21.208;2023-09-19T08:10:34;15.68;;;11.40;;
30948;SDS011;17637;51.984;21.208;2023-09-19T08:13:07;15.85;;;11.25;;
30948;SDS011;17637;51.984;21.208;2023-09-19T08:15:43;13.27;;;11.88;;
30948;SDS011;17637;51.984;21.208;2023-09-19T08:18:16;13.55;;;11.23;;
30948;SDS011;17637;51.984;21.208;2023-09-19T08:20:49;15.95;;;11.63;;
30948;SDS011;17637;51.984;21.208;2023-09-19T08:23:24;15.20;;;12.88;;
30948;SDS011;17637;51.984;21.208;2023-09-19T08:25:56;13.40;;;11.57;;
30948;SDS011;17637;51.984;21.208;2023-09-19T08:28:28;13.35;;;10.93;;
30948;SDS011;17637;51.984;21.208;2023-09-19T08:31:02;14.77;;;11.68;;
30948;SDS011;17637;51.984;21.208;2023-09-19T08:33:37;15.48;;;12.60;;
30948;SDS011;17637;51.984;21.208;2023-09-19T08:36:11;15.30;;;12.02;;
30948;SDS011;17637;51.984;21.208;2023-09-19T08:38:45;14.57;;;13.07;;
30948;SDS011;17637;51.984;21.208;2023-09-19T08:41:17;14.25;;;12.73;;
30948;SDS011;17637;51.984;21.208;2023-09-19T08:43:49;14.23;;;11.07;;
30948;SDS011;17637;51.984;21.208;2023-09-19T08:46:25;14.52;;;12.77;;
30948;SDS011;17637;51.984;21.208;2023-09-19T08:49:05;17.50;;;13.80;;
30948;SDS011;17637;51.984;21.208;2023-09-19T08:51:43;13.13;;;11.55;;
30948;SDS011;17637;51.984;21.208;2023-09-19T08:59:38;16.65;;;13.35;;
30948;SDS011;17637;51.984;21.208;2023-09-19T09:02:12;13.50;;;11.50;;
30948;SDS011;17637;51.984;21.208;2023-09-19T09:04:44;17.58;;;13.90;;
30948;SDS011;17637;51.984;21.208;2023-09-19T09:07:17;15.15;;;12.57;;
30948;SDS011;17637;51.984;21.208;2023-09-19T09:09:50;16.20;;;12.82;;
30948;SDS011;17637;51.984;21.208;2023-09-19T09:12:22;18.17;;;13.18;;
30948;SDS011;17637;51.984;21.208;2023-09-19T09:14:55;16.70;;;13.63;;
30948;SDS011;17637;51.984;21.208;2023-09-19T09:17:28;15.52;;;12.32;;
30948;SDS011;17637;51.984;21.208;2023-09-19T09:20:01;15.07;;;13.48;;
30948;SDS011;17637;51.984;21.208;2023-09-19T09:22:34;18.05;;;13.73;;
30948;SDS011;17637;51.984;21.208;2023-09-19T09:25:08;16.80;;;13.95;;
30948;SDS011;17637;51.984;21.208;2023-09-19T09:27:40;18.95;;;13.82;;
30948;SDS011;17637;51.984;21.208;2023-09-19T09:30:17;14.68;;;12.63;;
30948;SDS011;17637;51.984;21.208;2023-09-19T09:33:08;15.75;;;14.05;;
30948;SDS011;17637;51.984;21.208;2023-09-19T09:35:53;14.40;;;12.82;;
30948;SDS011;17637;51.984;21.208;2023-09-19T09:38:29;17.23;;;12.93;;
30948;SDS011;17637;51.984;21.208;2023-09-19T09:41:16;16.95;;;13.73;;
30948;SDS011;17637;51.984;21.208;2023-09-19T09:43:58;20.63;;;15.32;;
30948;SDS011;17637;51.984;21.208;2023-09-19T09:46:46;19.10;;;16.05;;
30948;SDS011;17637;51.984;21.208;2023-09-19T09:49:50;21.25;;;15.20;;
30948;SDS011;17637;51.984;21.208;2023-09-19T09:52:26;17.25;;;14.90;;
30948;SDS011;17637;51.984;21.208;2023-09-19T09:55:01;19.90;;;15.80;;
30948;SDS011;17637;51.984;21.208;2023-09-19T09:57:37;19.88;;;15.75;;
30948;SDS011;17637;51.984;21.208;2023-09-19T10:00:12;20.45;;;15.93;;
30948;SDS011;17637;51.984;21.208;2023-09-19T10:02:44;19.65;;;15.43;;
30948;SDS011;17637;51.984;21.208;2023-09-19T10:05:19;19.70;;;15.57;;
30948;SDS011;17637;51.984;21.208;2023-09-19T10:07:52;19.60;;;15.02;;
30948;SDS011;17637;51.984;21.208;2023-09-19T10:10:33;21.20;;;14.93;;
30948;SDS011;17637;51.984;21.208;2023-09-19T10:13:15;15.65;;;14.00;;
30948;SDS011;17637;51.984;21.208;2023-09-19T10:15:52;17.10;;;14.07;;
30948;SDS011;17637;51.984;21.208;2023-09-19T10:18:27;16.30;;;13.75;;
30948;SDS011;17637;51.984;21.208;2023-09-19T10:21:01;19.20;;;15.73;;
30948;SDS011;17637;51.984;21.208;2023-09-19T10:23:35;21.42;;;16.15;;
30948;SDS011;17637;51.984;21.208;2023-09-19T10:26:09;18.33;;;15.52;;
30948;SDS011;17637;51.984;21.208;2023-09-19T10:28:41;19.77;;;16.45;;
30948;SDS011;17637;51.984;21.208;2023-09-19T10:31:13;20.77;;;17.90;;
30948;SDS011;17637;51.984;21.208;2023-09-19T10:33:51;23.02;;;18.75;;
30948;SDS011;17637;51.984;21.208;2023-09-19T10:36:24;30.40;;;21.63;;
30948;SDS011;17637;51.984;21.208;2023-09-19T10:38:58;25.30;;;19.85;;
30948;SDS011;17637;51.984;21.208;2023-09-19T10:41:34;26.73;;;20.13;;
30948;SDS011;17637;51.984;21.208;2023-09-19T10:44:06;23.77;;;16.85;;
30948;SDS011;17637;51.984;21.208;2023-09-19T10:46:38;23.80;;;19.23;;
30948;SDS011;17637;51.984;21.208;2023-09-19T10:49:10;19.48;;;17.23;;
30948;SDS011;17637;51.984;21.208;2023-09-19T10:51:42;25.48;;;18.60;;
30948;SDS011;17637;51.984;21.208;2023-09-19T10:54:18;20.40;;;16.55;;
30948;SDS011;17637;51.984;21.208;2023-09-19T10:56:52;20.90;;;16.92;;
30948;SDS011;17637;51.984;21.208;2023-09-19T10:59:24;20.95;;;15.85;;
30948;SDS011;17637;51.984;21.208;2023-09-19T11:01:57;18.50;;;13.00;;
30948;SDS011;17637;51.984;21.208;2023-09-19T11:04:30;18.80;;;15.07;;
30948;SDS011;17637;51.984;21.208;2023-09-19T11:07:13;22.30;;;15.80;;
30948;SDS011;17637;51.984;21.208;2023-09-19T11:26:50;17.92;;;13.32;;
30948;SDS011;17637;51.984;21.208;2023-09-19T11:29:24;15.05;;;12.02;;
30948;SDS011;17637;51.984;21.208;2023-09-19T11:31:57;18.33;;;14.60;;
30948;SDS011;17637;51.984;21.208;2023-09-19T11:34:41;13.43;;;11.10;;
30948;SDS011;17637;51.984;21.208;2023-09-19T11:40:07;16.65;;;13.43;;
30948;SDS011;17637;51.984;21.208;2023-09-19T11:42:47;19.15;;;14.73;;
30948;SDS011;17637;51.984;21.208;2023-09-19T11:48:21;17.52;;;14.75;;
30948;SDS011;17637;51.984;21.208;2023-09-19T11:50:56;17.17;;;13.75;;
30948;SDS011;17637;51.984;21.208;2023-09-19T11:53:31;17.60;;;14.55;;
30948;SDS011;17637;51.984;21.208;2023-09-19T11:56:05;21.95;;;15.95;;
30948;SDS011;17637;51.984;21.208;2023-09-19T11:58:41;20.05;;;15.85;;
30948;SDS011;17637;51.984;21.208;2023-09-19T12:01:19;16.85;;;12.15;;
30948;SDS011;17637;51.984;21.208;2023-09-19T12:03:57;21.75;;;15.80;;
30948;SDS011;17637;51.984;21.208;2023-09-19T12:06:31;15.07;;;12.27;;
30948;SDS011;17637;51.984;21.208;2023-09-19T12:09:08;16.20;;;12.63;;
30948;SDS011;17637;51.984;21.208;2023-09-19T12:11:47;17.83;;;14.25;;
30948;SDS011;17637;51.984;21.208;2023-09-19T12:14:24;13.02;;;11.25;;
30948;SDS011;17637;51.984;21.208;2023-09-19T12:16:57;15.45;;;13.23;;
30948;SDS011;17637;51.984;21.208;2023-09-19T12:19:32;14.23;;;12.38;;
30948;SDS011;17637;51.984;21.208;2023-09-19T12:22:04;14.85;;;12.00;;
30948;SDS011;17637;51.984;21.208;2023-09-19T12:24:36;15.95;;;12.50;;
30948;SDS011;17637;51.984;21.208;2023-09-19T12:27:10;16.55;;;12.15;;
30948;SDS011;17637;51.984;21.208;2023-09-19T12:29:49;16.33;;;13.02;;
30948;SDS011;17637;51.984;21.208;2023-09-19T12:32:36;21.58;;;15.82;;
30948;SDS011;17637;51.984;21.208;2023-09-19T12:35:26;18.90;;;15.32;;
30948;SDS011;17637;51.984;21.208;2023-09-19T12:38:00;19.08;;;15.20;;
30948;SDS011;17637;51.984;21.208;2023-09-19T12:40:32;22.83;;;19.25;;
30948;SDS011;17637;51.984;21.208;2023-09-19T12:43:07;21.25;;;17.63;;
30948;SDS011;17637;51.984;21.208;2023-09-19T12:45:40;19.38;;;15.55;;
30948;SDS011;17637;51.984;21.208;2023-09-19T12:48:17;20.15;;;16.48;;
30948;SDS011;17637;51.984;21.208;2023-09-19T12:51:02;19.52;;;15.40;;
30948;SDS011;17637;51.984;21.208;2023-09-19T12:53:42;17.60;;;15.52;;
30948;SDS011;17637;51.984;21.208;2023-09-19T12:56:17;18.58;;;15.52;;
30948;SDS011;17637;51.984;21.208;2023-09-19T13:01:26;18.88;;;13.88;;
30948;SDS011;17637;51.984;21.208;2023-09-19T13:06:44;18.15;;;13.48;;
30948;SDS011;17637;51.984;21.208;2023-09-19T13:09:21;15.80;;;11.52;;
30948;SDS011;17637;51.984;21.208;2023-09-19T13:11:56;14.40;;;11.35;;
30948;SDS011;17637;51.984;21.208;2023-09-19T13:14:30;15.73;;;11.80;;
30948;SDS011;17637;51.984;21.208;2023-09-19T13:17:12;23.70;;;13.88;;
30948;SDS011;17637;51.984;21.208;2023-09-19T13:19:54;20.88;;;13.88;;
30948;SDS011;17637;51.984;21.208;2023-09-19T13:25:26;20.58;;;13.57;;
30948;SDS011;17637;51.984;21.208;2023-09-19T13:28:01;15.85;;;12.05;;
30948;SDS011;17637;51.984;21.208;2023-09-19T13:30:37;14.38;;;10.63;;
30948;SDS011;17637;51.984;21.208;2023-09-19T13:33:13;13.45;;;11.13;;
30948;SDS011;17637;51.984;21.208;2023-09-19T13:35:52;11.80;;;9.32;;
30948;SDS011;17637;51.984;21.208;2023-09-19T13:38:24;10.05;;;8.35;;
30948;SDS011;17637;51.984;21.208;2023-09-19T13:40:56;11.20;;;8.77;;
30948;SDS011;17637;51.984;21.208;2023-09-19T13:43:28;12.07;;;9.90;;
30948;SDS011;17637;51.984;21.208;2023-09-19T13:46:00;13.23;;;10.32;;
30948;SDS011;17637;51.984;21.208;2023-09-19T13:48:32;13.10;;;9.55;;
30948;SDS011;17637;51.984;21.208;2023-09-19T13:51:06;13.85;;;10.40;;
30948;SDS011;17637;51.984;21.208;2023-09-19T13:53:39;20.15;;;12.00;;
30948;SDS011;17637;51.984;21.208;2023-09-19T13:56:10;15.00;;;11.70;;
30948;SDS011;17637;51.984;21.208;2023-09-19T13:58:42;15.30;;;11.57;;
30948;SDS011;17637;51.984;21.208;2023-09-19T14:01:14;14.63;;;9.32;;
30948;SDS011;17637;51.984;21.208;2023-09-19T14:03:46;10.52;;;8.98;;
30948;SDS011;17637;51.984;21.208;2023-09-19T14:06:20;15.15;;;10.90;;
30948;SDS011;17637;51.984;21.208;2023-09-19T14:08:52;17.45;;;13.40;;
30948;SDS011;17637;51.984;21.208;2023-09-19T14:11:24;12.95;;;9.88;;
30948;SDS011;17637;51.984;21.208;2023-09-19T14:13:58;12.95;;;10.27;;
30948;SDS011;17637;51.984;21.208;2023-09-19T14:16:30;12.00;;;10.45;;
30948;SDS011;17637;51.984;21.208;2023-09-19T14:19:02;12.18;;;9.85;;
30948;SDS011;17637;51.984;21.208;2023-09-19T14:21:34;15.43;;;8.63;;
30948;SDS011;17637;51.984;21.208;2023-09-19T14:24:08;13.88;;;9.63;;
30948;SDS011;17637;51.984;21.208;2023-09-19T14:26:41;15.88;;;9.88;;
30948;SDS011;17637;51.984;21.208;2023-09-19T14:29:12;16.45;;;10.43;;
30948;SDS011;17637;51.984;21.208;2023-09-19T14:31:45;12.10;;;10.23;;
30948;SDS011;17637;51.984;21.208;2023-09-19T14:34:17;12.70;;;9.98;;
30948;SDS011;17637;51.984;21.208;2023-09-19T14:36:48;13.70;;;10.30;;
30948;SDS011;17637;51.984;21.208;2023-09-19T14:39:20;11.20;;;9.52;;
30948;SDS011;17637;51.984;21.208;2023-09-19T14:41:52;14.88;;;10.10;;
30948;SDS011;17637;51.984;21.208;2023-09-19T14:44:24;14.73;;;10.65;;
30948;SDS011;17637;51.984;21.208;2023-09-19T14:46:56;15.00;;;11.73;;
30948;SDS011;17637;51.984;21.208;2023-09-19T14:49:28;14.27;;;10.85;;
30948;SDS011;17637;51.984;21.208;2023-09-19T14:52:00;17.75;;;12.10;;
30948;SDS011;17637;51.984;21.208;2023-09-19T14:54:35;17.45;;;12.88;;
30948;SDS011;17637;51.984;21.208;2023-09-19T14:57:12;19.88;;;14.50;;
30948;SDS011;17637;51.984;21.208;2023-09-19T14:59:46;16.65;;;12.77;;
30948;SDS011;17637;51.984;21.208;2023-09-19T15:02:18;18.25;;;14.05;;
30948;SDS011;17637;51.984;21.208;2023-09-19T15:04:51;15.20;;;11.68;;
30948;SDS011;17637;51.984;21.208;2023-09-19T15:07:24;11.38;;;10.18;;
30948;SDS011;17637;51.984;21.208;2023-09-19T15:09:58;17.08;;;12.13;;
30948;SDS011;17637;51.984;21.208;2023-09-19T15:12:30;15.18;;;13.15;;
30948;SDS011;17637;51.984;21.208;2023-09-19T15:15:02;22.45;;;15.45;;
30948;SDS011;17637;51.984;21.208;2023-09-19T15:17:35;19.60;;;13.80;;
30948;SDS011;17637;51.984;21.208;2023-09-19T15:20:07;17.00;;;13.93;;
30948;SDS011;17637;51.984;21.208;2023-09-19T15:22:40;16.08;;;11.82;;
30948;SDS011;17637;51.984;21.208;2023-09-19T15:25:11;15.05;;;11.95;;
30948;SDS011;17637;51.984;21.208;2023-09-19T15:27:43;16.67;;;13.50;;
30948;SDS011;17637;51.984;21.208;2023-09-19T15:30:16;20.10;;;15.52;;
30948;SDS011;17637;51.984;21.208;2023-09-19T15:32:48;18.35;;;13.10;;
30948;SDS011;17637;51.984;21.208;2023-09-19T15:35:20;16.55;;;14.68;;
30948;SDS011;17637;51.984;21.208;2023-09-19T15:37:53;19.20;;;14.93;;
30948;SDS011;17637;51.984;21.208;2023-09-19T15:40:27;18.67;;;13.55;;